Time;durP1;ratioP1;P1;durP2;ratioP2;P2;SDS_P1;SDS_P2;PMS_P1;PMS_P2;Temp;Humidity;BMP_temperature;BMP_pressure;BME280_temperature;BME280_humidity;BME280_pressure;Samples;Min_cycle;Max_cycle;Signal;HPM_P1;HPM_P2
2023/05/29 00:01:20;;;;;;;9.63;7.95;;;;;;;;;;5075378;28;20121;-77
2023/05/29 00:03:46;;;;;;;7.68;6.90;;;;;;;;;;5071435;28;20024;-75
2023/05/29 00:06:12;;;;;;;7.88;6.75;;;;;;;;;;5064641;28;20513;-74
2023/05/29 00:08:37;;;;;;;11.15;6.32;;;;;;;;;;5072896;28;20031;-74
2023/05/29 00:11:03;;;;;;;6.55;5.95;;;;;;;;;;5077180;28;20066;-75
2023/05/29 00:13:28;;;;;;;6.45;5.65;;;;;;;;;;5078620;28;20032;-74
2023/05/29 00:15:54;;;;;;;8.77;6.43;;;;;;;;;;5065552;28;20031;-75
2023/05/29 00:18:19;;;;;;;7.38;6.65;;;;;;;;;;5074623;28;20031;-75
2023/05/29 00:20:45;;;;;;;8.18;6.90;;;;;;;;;;5063022;28;20064;-75
2023/05/29 00:23:10;;;;;;;9.25;6.85;;;;;;;;;;5073360;28;20052;-77
2023/05/29 00:25:36;;;;;;;7.82;7.03;;;;;;;;;;5074951;28;20031;-74
2023/05/29 00:28:01;;;;;;;8.43;6.95;;;;;;;;;;5075809;28;20125;-74
2023/05/29 00:30:26;;;;;;;8.00;7.20;;;;;;;;;;5078213;28;20039;-74
2023/05/29 00:32:52;;;;;;;7.78;6.95;;;;;;;;;;5078016;28;20020;-74
2023/05/29 00:35:17;;;;;;;7.03;6.43;;;;;;;;;;5073227;28;20028;-74
2023/05/29 00:37:43;;;;;;;8.35;7.50;;;;;;;;;;5075516;28;20020;-75
2023/05/29 00:40:09;;;;;;;8.30;7.60;;;;;;;;;;5064019;28;20060;-75
2023/05/29 00:42:34;;;;;;;8.38;7.57;;;;;;;;;;5077509;28;20097;-76
2023/05/29 00:45:00;;;;;;;10.32;7.53;;;;;;;;;;5074699;28;20024;-75
2023/05/29 00:47:25;;;;;;;9.02;8.23;;;;;;;;;;5070737;28;20145;-75
2023/05/29 00:49:51;;;;;;;8.57;7.78;;;;;;;;;;5070315;28;20033;-74
2023/05/29 00:52:17;;;;;;;9.68;8.57;;;;;;;;;;5076347;28;20073;-74
2023/05/29 00:54:44;;;;;;;9.63;8.73;;;;;;;;;;5069208;28;20016;-74
2023/05/29 00:57:10;;;;;;;11.13;8.05;;;;;;;;;;5074054;28;20052;-77
2023/05/29 00:59:35;;;;;;;11.65;8.43;;;;;;;;;;5075012;28;20136;-74
2023/05/29 01:02:02;;;;;;;9.02;8.10;;;;;;;;;;5066051;28;20607;-77
2023/05/29 01:04:27;;;;;;;8.00;7.30;;;;;;;;;;5076113;28;20020;-75
2023/05/29 01:06:53;;;;;;;8.55;7.72;;;;;;;;;;5076636;28;20047;-77
2023/05/29 01:09:18;;;;;;;8.40;7.70;;;;;;;;;;5074204;28;20023;-75
2023/05/29 01:11:57;;;;;;;7.75;7.13;;;;;;;;;;5070576;28;21757;-76
2023/05/29 01:14:29;;;;;;;8.23;7.43;;;;;;;;;;5073750;28;20043;-75
2023/05/29 01:17:00;;;;;;;8.32;7.63;;;;;;;;;;5065379;28;20370;-75
2023/05/29 01:19:43;;;;;;;8.43;7.80;;;;;;;;;;5067063;28;20038;-76
2023/05/29 01:22:15;;;;;;;9.20;8.40;;;;;;;;;;5075511;28;20024;-76
2023/05/29 01:24:52;;;;;;;8.23;7.53;;;;;;;;;;5063319;28;20091;-75
2023/05/29 01:27:19;;;;;;;8.90;8.15;;;;;;;;;;5074859;28;20024;-77
2023/05/29 01:29:46;;;;;;;9.18;8.38;;;;;;;;;;5055088;28;20032;-75
2023/05/29 01:32:11;;;;;;;8.27;7.57;;;;;;;;;;5075109;28;20024;-74
2023/05/29 01:34:37;;;;;;;9.82;8.40;;;;;;;;;;5074844;28;20022;-75
2023/05/29 01:37:02;;;;;;;8.48;7.78;;;;;;;;;;5076410;28;20063;-74
2023/05/29 01:39:28;;;;;;;8.05;7.30;;;;;;;;;;5073261;28;20045;-75
2023/05/29 01:41:54;;;;;;;8.93;8.10;;;;;;;;;;5073155;28;20688;-76
2023/05/29 01:44:20;;;;;;;8.77;8.07;;;;;;;;;;5063584;28;20016;-75
2023/05/29 01:46:46;;;;;;;9.00;8.10;;;;;;;;;;5065404;28;20320;-75
2023/05/29 01:49:12;;;;;;;8.70;8.00;;;;;;;;;;5066113;28;20514;-74
2023/05/29 01:51:40;;;;;;;9.50;8.20;;;;;;;;;;5070990;28;20342;-75
2023/05/29 01:54:06;;;;;;;8.93;8.10;;;;;;;;;;5073125;28;20024;-74
2023/05/29 01:56:31;;;;;;;8.75;7.78;;;;;;;;;;5069354;28;20091;-75
2023/05/29 01:58:57;;;;;;;8.20;7.40;;;;;;;;;;5059889;28;20446;-76
2023/05/29 02:01:23;;;;;;;8.63;7.28;;;;;;;;;;5064194;28;20051;-78
2023/05/29 02:03:49;;;;;;;9.77;7.80;;;;;;;;;;5075241;28;20492;-76
2023/05/29 02:06:15;;;;;;;8.20;7.40;;;;;;;;;;5074939;28;20720;-75
2023/05/29 02:08:40;;;;;;;7.30;6.60;;;;;;;;;;5072172;28;20411;-76
2023/05/29 02:11:05;;;;;;;6.82;6.13;;;;;;;;;;5058009;28;20032;-75
2023/05/29 02:13:31;;;;;;;6.88;6.28;;;;;;;;;;5073430;28;20035;-75
2023/05/29 02:15:56;;;;;;;6.78;6.03;;;;;;;;;;5051209;28;20036;-75
2023/05/29 02:18:22;;;;;;;9.82;6.43;;;;;;;;;;5045376;28;20032;-75
2023/05/29 02:20:47;;;;;;;7.18;6.32;;;;;;;;;;5070691;28;20115;-75
2023/05/29 02:23:13;;;;;;;6.78;6.18;;;;;;;;;;5053987;28;20060;-77
2023/05/29 02:25:40;;;;;;;7.13;6.43;;;;;;;;;;5066136;28;20805;-76
2023/05/29 02:28:05;;;;;;;9.07;6.95;;;;;;;;;;5068857;28;20111;-75
2023/05/29 02:30:31;;;;;;;7.80;6.47;;;;;;;;;;5063950;28;20158;-75
2023/05/29 02:32:56;;;;;;;7.90;6.60;;;;;;;;;;5061987;28;20016;-74
2023/05/29 02:35:22;;;;;;;9.73;7.25;;;;;;;;;;5060759;28;20039;-74
2023/05/29 02:37:51;;;;;;;7.57;6.38;;;;;;;;;;5068986;28;20032;-76
2023/05/29 02:40:17;;;;;;;8.80;7.90;;;;;;;;;;5071219;28;20143;-74
2023/05/29 02:42:43;;;;;;;9.85;7.32;;;;;;;;;;5069488;28;20115;-76
2023/05/29 02:45:08;;;;;;;8.85;8.07;;;;;;;;;;5061178;28;20068;-77
2023/05/29 02:47:34;;;;;;;10.60;9.50;;;;;;;;;;5067299;28;20066;-76
2023/05/29 02:49:59;;;;;;;8.82;7.72;;;;;;;;;;5059378;28;20310;-77
2023/05/29 02:52:25;;;;;;;8.18;7.38;;;;;;;;;;5072514;28;20036;-76
2023/05/29 02:54:50;;;;;;;8.48;6.95;;;;;;;;;;5056436;28;20110;-74
2023/05/29 02:57:15;;;;;;;9.15;6.72;;;;;;;;;;5075219;28;20107;-76
2023/05/29 02:59:41;;;;;;;8.52;7.72;;;;;;;;;;5069426;28;20462;-75
2023/05/29 03:02:06;;;;;;;8.88;7.97;;;;;;;;;;5067349;28;20104;-76
2023/05/29 03:04:32;;;;;;;9.85;8.85;;;;;;;;;;5065733;28;20020;-76
2023/05/29 03:06:57;;;;;;;9.50;8.52;;;;;;;;;;5076578;28;20029;-75
2023/05/29 03:09:23;;;;;;;9.82;9.02;;;;;;;;;;5078622;28;20495;-76
2023/05/29 03:11:50;;;;;;;11.13;9.70;;;;;;;;;;5078252;28;20016;-75
2023/05/29 03:14:15;;;;;;;10.52;9.55;;;;;;;;;;5075602;28;20465;-74
2023/05/29 03:16:41;;;;;;;10.85;9.82;;;;;;;;;;5079202;28;20032;-76
2023/05/29 03:19:09;;;;;;;11.20;9.30;;;;;;;;;;5079243;28;20443;-75
2023/05/29 03:21:35;;;;;;;10.98;9.98;;;;;;;;;;5075911;28;20095;-75
2023/05/29 03:24:02;;;;;;;13.18;9.40;;;;;;;;;;5078549;28;20130;-76
2023/05/29 03:26:27;;;;;;;11.88;8.45;;;;;;;;;;5076871;28;20044;-75
2023/05/29 03:28:53;;;;;;;9.57;8.57;;;;;;;;;;5080213;28;20079;-76
2023/05/29 03:31:18;;;;;;;9.63;8.48;;;;;;;;;;5074967;28;20053;-76
2023/05/29 03:33:45;;;;;;;9.57;8.02;;;;;;;;;;5069898;28;20088;-75
2023/05/29 03:36:10;;;;;;;9.38;8.38;;;;;;;;;;5080988;28;20538;-74
2023/05/29 03:38:36;;;;;;;10.10;9.10;;;;;;;;;;5062953;28;20174;-74
2023/05/29 03:41:01;;;;;;;9.13;8.35;;;;;;;;;;5096694;28;20024;-74
2023/05/29 03:43:27;;;;;;;10.18;9.27;;;;;;;;;;5099619;28;20118;-77
2023/05/29 03:45:52;;;;;;;10.68;9.32;;;;;;;;;;5096305;28;20500;-77
2023/05/29 03:48:17;;;;;;;11.43;10.25;;;;;;;;;;5098844;28;20503;-76
2023/05/29 03:50:44;;;;;;;11.50;10.40;;;;;;;;;;5093853;28;21409;-78
2023/05/29 03:53:10;;;;;;;11.05;9.88;;;;;;;;;;5095378;28;20327;-74
2023/05/29 03:55:35;;;;;;;11.20;10.00;;;;;;;;;;5093754;28;20034;-75
2023/05/29 03:58:01;;;;;;;12.30;10.90;;;;;;;;;;5088923;28;20449;-74
2023/05/29 04:00:26;;;;;;;11.50;9.40;;;;;;;;;;5096483;28;20031;-77
2023/05/29 04:02:52;;;;;;;11.07;10.10;;;;;;;;;;5072626;28;20438;-75
2023/05/29 04:05:17;;;;;;;11.05;10.10;;;;;;;;;;5073922;28;20329;-75
2023/05/29 04:07:42;;;;;;;11.82;10.63;;;;;;;;;;5073560;28;20024;-76
2023/05/29 04:10:08;;;;;;;11.10;10.07;;;;;;;;;;5078347;28;20027;-78
2023/05/29 04:12:33;;;;;;;12.07;10.77;;;;;;;;;;5076382;28;20024;-74
2023/05/29 04:14:59;;;;;;;11.63;10.00;;;;;;;;;;5072589;28;20019;-75
2023/05/29 04:17:24;;;;;;;10.70;9.65;;;;;;;;;;5073614;28;20414;-74
2023/05/29 04:19:50;;;;;;;10.07;9.23;;;;;;;;;;5076350;28;20027;-74
2023/05/29 04:22:15;;;;;;;11.13;10.13;;;;;;;;;;5076365;28;20040;-74
2023/05/29 04:24:41;;;;;;;12.35;10.60;;;;;;;;;;5098705;28;20015;-75
2023/05/29 04:27:08;;;;;;;11.18;10.02;;;;;;;;;;5091851;28;20131;-76
2023/05/29 04:29:34;;;;;;;13.60;10.55;;;;;;;;;;5093913;28;20115;-73
2023/05/29 04:32:03;;;;;;;14.45;10.75;;;;;;;;;;5076570;28;20439;-75
2023/05/29 04:34:28;;;;;;;15.02;11.30;;;;;;;;;;5071415;28;20031;-75
2023/05/29 04:36:53;;;;;;;11.27;10.10;;;;;;;;;;5072942;28;20114;-75
2023/05/29 04:39:22;;;;;;;12.40;10.73;;;;;;;;;;5084106;28;20097;-75
2023/05/29 04:41:48;;;;;;;12.50;11.38;;;;;;;;;;5066558;28;20017;-75
2023/05/29 04:44:13;;;;;;;12.23;11.15;;;;;;;;;;5054918;28;20027;-74
2023/05/29 04:46:38;;;;;;;12.82;11.30;;;;;;;;;;5073946;28;20023;-74
2023/05/29 04:49:04;;;;;;;13.23;11.90;;;;;;;;;;5072909;28;20032;-75
2023/05/29 04:51:30;;;;;;;12.88;11.60;;;;;;;;;;5075210;28;20018;-75
2023/05/29 04:53:55;;;;;;;13.05;11.65;;;;;;;;;;5073187;28;20031;-77
2023/05/29 04:56:21;;;;;;;14.27;12.38;;;;;;;;;;5052216;28;20043;-75
2023/05/29 04:58:47;;;;;;;14.00;12.68;;;;;;;;;;5068886;28;20058;-75
2023/05/29 05:01:14;;;;;;;13.18;11.88;;;;;;;;;;5067973;28;20028;-75
2023/05/29 05:03:42;;;;;;;13.35;12.15;;;;;;;;;;5076263;28;20024;-74
2023/05/29 05:06:08;;;;;;;14.02;12.43;;;;;;;;;;5058753;28;20039;-77
2023/05/29 05:08:34;;;;;;;14.80;13.15;;;;;;;;;;5055723;28;20032;-76
2023/05/29 05:11:00;;;;;;;15.13;13.65;;;;;;;;;;5076668;28;20074;-75
2023/05/29 05:13:25;;;;;;;16.48;14.55;;;;;;;;;;5071599;28;20052;-74
2023/05/29 05:15:51;;;;;;;19.02;17.20;;;;;;;;;;5074847;28;20032;-75
2023/05/29 05:18:16;;;;;;;19.48;17.48;;;;;;;;;;5075410;28;20441;-74
2023/05/29 05:20:41;;;;;;;19.13;17.27;;;;;;;;;;5077479;28;20034;-75
2023/05/29 05:23:07;;;;;;;19.40;17.48;;;;;;;;;;5072800;28;20501;-79
2023/05/29 05:25:34;;;;;;;19.33;17.45;;;;;;;;;;5077597;28;20024;-76
2023/05/29 05:28:00;;;;;;;20.33;16.95;;;;;;;;;;5068500;28;20142;-75
2023/05/29 05:30:25;;;;;;;20.77;18.02;;;;;;;;;;5060399;28;20043;-75
2023/05/29 05:32:51;;;;;;;19.95;16.55;;;;;;;;;;5060963;28;20095;-76
2023/05/29 05:35:16;;;;;;;21.65;18.02;;;;;;;;;;5062861;28;20350;-76
2023/05/29 05:37:42;;;;;;;22.15;17.13;;;;;;;;;;5074537;28;20039;-80
2023/05/29 05:40:08;;;;;;;24.10;19.20;;;;;;;;;;5076990;28;20067;-76
2023/05/29 05:42:33;;;;;;;22.83;18.25;;;;;;;;;;5076464;28;20027;-74
2023/05/29 05:44:59;;;;;;;18.88;16.88;;;;;;;;;;5074645;28;20026;-76
2023/05/29 05:47:24;;;;;;;22.30;17.42;;;;;;;;;;5075636;28;20133;-75
2023/05/29 05:49:51;;;;;;;24.98;20.48;;;;;;;;;;5075285;28;20032;-75
2023/05/29 05:52:16;;;;;;;19.33;17.00;;;;;;;;;;5076670;28;20020;-76
2023/05/29 05:54:42;;;;;;;19.17;15.80;;;;;;;;;;5078084;28;20020;-77
2023/05/29 05:57:08;;;;;;;17.88;15.90;;;;;;;;;;5076117;28;20191;-76
2023/05/29 05:59:33;;;;;;;20.45;16.10;;;;;;;;;;5074778;28;20392;-75
2023/05/29 06:01:58;;;;;;;20.80;16.15;;;;;;;;;;5074763;28;20028;-78
2023/05/29 06:04:24;;;;;;;18.75;16.77;;;;;;;;;;5075918;28;20024;-75
2023/05/29 06:06:49;;;;;;;19.58;17.13;;;;;;;;;;5077069;28;20024;-74
2023/05/29 06:09:15;;;;;;;17.67;15.02;;;;;;;;;;5077023;28;20056;-78
2023/05/29 06:11:40;;;;;;;18.20;16.05;;;;;;;;;;5074953;28;20059;-76
2023/05/29 06:14:06;;;;;;;18.95;14.88;;;;;;;;;;5075286;28;20043;-78
2023/05/29 06:16:31;;;;;;;18.30;16.40;;;;;;;;;;5074110;28;20032;-76
2023/05/29 06:18:57;;;;;;;17.58;15.38;;;;;;;;;;5075950;28;20079;-75
2023/05/29 06:21:22;;;;;;;19.67;16.35;;;;;;;;;;5076497;28;20055;-74
2023/05/29 06:23:47;;;;;;;20.17;15.30;;;;;;;;;;5073476;28;20032;-76
2023/05/29 06:26:15;;;;;;;18.48;14.90;;;;;;;;;;5078427;28;20027;-74
2023/05/29 06:28:41;;;;;;;16.95;15.00;;;;;;;;;;5074276;28;20039;-77
2023/05/29 06:31:06;;;;;;;18.65;15.10;;;;;;;;;;5072563;28;20093;-75
2023/05/29 06:33:32;;;;;;;17.30;14.27;;;;;;;;;;5076698;28;20024;-74
2023/05/29 06:35:57;;;;;;;18.90;14.55;;;;;;;;;;5072103;28;20035;-73
2023/05/29 06:38:22;;;;;;;19.65;15.45;;;;;;;;;;5076552;28;20043;-74
2023/05/29 06:40:48;;;;;;;17.67;15.40;;;;;;;;;;5074863;28;20035;-76
2023/05/29 06:43:13;;;;;;;18.63;15.93;;;;;;;;;;5072610;28;20031;-75
2023/05/29 06:45:39;;;;;;;20.13;16.77;;;;;;;;;;5073875;28;20025;-76
2023/05/29 06:48:04;;;;;;;19.40;16.98;;;;;;;;;;5076162;28;20034;-75
2023/05/29 06:50:29;;;;;;;17.92;16.02;;;;;;;;;;5073894;28;20192;-75
2023/05/29 06:52:55;;;;;;;17.55;15.07;;;;;;;;;;5075156;28;20054;-76
2023/05/29 06:55:21;;;;;;;19.30;15.32;;;;;;;;;;5072411;28;20343;-75
2023/05/29 06:57:46;;;;;;;17.80;13.95;;;;;;;;;;5076362;28;20089;-75
2023/05/29 07:00:12;;;;;;;17.08;15.25;;;;;;;;;;5075087;28;20032;-75
2023/05/29 07:02:37;;;;;;;16.98;15.27;;;;;;;;;;5070857;28;20090;-75
2023/05/29 07:05:03;;;;;;;18.35;15.77;;;;;;;;;;5071076;28;20029;-75
2023/05/29 07:07:28;;;;;;;18.00;14.50;;;;;;;;;;5075591;28;20107;-74
2023/05/29 07:09:54;;;;;;;17.55;15.52;;;;;;;;;;5076773;28;20024;-76
2023/05/29 07:12:19;;;;;;;17.13;14.23;;;;;;;;;;5072963;28;20423;-74
2023/05/29 07:14:47;;;;;;;16.50;14.65;;;;;;;;;;5075306;28;20131;-76
2023/05/29 07:17:13;;;;;;;15.93;14.23;;;;;;;;;;5072347;28;20024;-75
2023/05/29 07:19:38;;;;;;;17.10;15.10;;;;;;;;;;5073062;28;20046;-75
2023/05/29 07:22:04;;;;;;;17.13;15.30;;;;;;;;;;5077240;28;20024;-77
2023/05/29 07:24:29;;;;;;;16.52;14.68;;;;;;;;;;5076018;28;20042;-76
2023/05/29 07:26:55;;;;;;;17.02;13.00;;;;;;;;;;5075582;28;20025;-76
2023/05/29 07:29:22;;;;;;;14.20;12.70;;;;;;;;;;5073580;28;21093;-75
2023/05/29 07:31:48;;;;;;;14.18;12.20;;;;;;;;;;5074284;28;20031;-77
2023/05/29 07:34:13;;;;;;;13.20;11.98;;;;;;;;;;5073009;28;20024;-75
2023/05/29 07:36:55;;;;;;;19.77;12.25;;;;;;;;;;5070299;28;20625;-76
2023/05/29 07:39:21;;;;;;;13.43;12.13;;;;;;;;;;5075036;28;20348;-74
2023/05/29 07:41:46;;;;;;;13.88;11.50;;;;;;;;;;5073244;28;20031;-75
2023/05/29 07:44:11;;;;;;;14.13;12.05;;;;;;;;;;5075004;28;20449;-77
2023/05/29 07:46:37;;;;;;;13.02;11.68;;;;;;;;;;5073804;28;20067;-76
2023/05/29 07:49:02;;;;;;;12.50;11.20;;;;;;;;;;5076210;28;20396;-76
2023/05/29 07:51:27;;;;;;;13.55;12.15;;;;;;;;;;5076754;28;20037;-75
2023/05/29 07:53:53;;;;;;;13.35;10.77;;;;;;;;;;5075602;28;20025;-75
2023/05/29 07:56:18;;;;;;;12.20;10.48;;;;;;;;;;5075850;28;20024;-75
2023/05/29 07:58:43;;;;;;;11.38;10.27;;;;;;;;;;5076543;28;20025;-76
2023/05/29 08:01:09;;;;;;;11.75;10.07;;;;;;;;;;5077170;28;20036;-75
2023/05/29 08:03:34;;;;;;;10.90;9.88;;;;;;;;;;5078481;28;20016;-74
2023/05/29 08:05:59;;;;;;;11.52;10.43;;;;;;;;;;5059283;28;20031;-77
2023/05/29 08:08:25;;;;;;;11.20;10.10;;;;;;;;;;5076698;28;20473;-76
2023/05/29 08:10:50;;;;;;;11.48;10.20;;;;;;;;;;5068393;28;20119;-75
2023/05/29 08:13:15;;;;;;;10.30;9.27;;;;;;;;;;5073077;28;20071;-77
2023/05/29 08:15:41;;;;;;;12.02;10.77;;;;;;;;;;5080091;28;20027;-75
2023/05/29 08:18:06;;;;;;;10.25;9.25;;;;;;;;;;5077381;28;20020;-75
2023/05/29 08:20:34;;;;;;;12.57;10.02;;;;;;;;;;5077759;28;20052;-76
2023/05/29 08:22:59;;;;;;;9.65;8.65;;;;;;;;;;5076464;28;20032;-76
2023/05/29 08:25:24;;;;;;;10.35;9.35;;;;;;;;;;5076009;28;20039;-76
2023/05/29 08:27:50;;;;;;;12.77;9.32;;;;;;;;;;5076260;28;20028;-75
2023/05/29 08:30:16;;;;;;;9.85;8.88;;;;;;;;;;5079506;28;20062;-74
2023/05/29 08:32:41;;;;;;;10.48;7.85;;;;;;;;;;5078328;28;20060;-75
2023/05/29 08:35:06;;;;;;;11.00;9.05;;;;;;;;;;5077496;28;20130;-75
2023/05/29 08:37:32;;;;;;;9.75;8.82;;;;;;;;;;5076472;28;20025;-75
2023/05/29 08:39:57;;;;;;;9.20;8.40;;;;;;;;;;5075806;28;20544;-74
2023/05/29 08:42:33;;;;;;;13.48;8.73;;;;;;;;;;5076607;28;20024;-74
2023/05/29 08:45:01;;;;;;;9.00;8.20;;;;;;;;;;5073344;28;20026;-75
2023/05/29 08:47:27;;;;;;;8.50;7.70;;;;;;;;;;5076832;28;20453;-75
2023/05/29 08:49:53;;;;;;;8.98;7.53;;;;;;;;;;5057846;28;20162;-75
2023/05/29 08:52:27;;;;;;;8.77;7.88;;;;;;;;;;5079030;28;20024;-74
2023/05/29 08:54:54;;;;;;;7.75;6.97;;;;;;;;;;5072788;28;20111;-76
2023/05/29 08:57:20;;;;;;;8.63;6.90;;;;;;;;;;5075468;28;20028;-76
2023/05/29 08:59:49;;;;;;;7.90;7.13;;;;;;;;;;5073627;28;20036;-75
2023/05/29 09:02:14;;;;;;;9.67;7.20;;;;;;;;;;5077702;28;20031;-75
2023/05/29 09:04:48;;;;;;;6.63;5.55;;;;;;;;;;5075499;28;20257;-76
2023/05/29 09:07:14;;;;;;;6.22;5.65;;;;;;;;;;5067828;28;20028;-78
2023/05/29 09:09:39;;;;;;;8.30;6.63;;;;;;;;;;5073610;28;20028;-76
2023/05/29 09:12:05;;;;;;;7.43;6.72;;;;;;;;;;5077378;28;20026;-76
2023/05/29 09:14:44;;;;;;;8.13;6.35;;;;;;;;;;5077960;28;20028;-77
2023/05/29 09:17:09;;;;;;;;;;;;;;;;;;5061177;28;20027;-75
2023/05/29 09:19:40;;;;;;;6.20;5.70;;;;;;;;;;5077229;28;19919;-74
2023/05/29 09:22:07;;;;;;;6.90;6.03;;;;;;;;;;5073006;28;20035;-75
2023/05/29 09:24:33;;;;;;;8.18;5.93;;;;;;;;;;5076414;28;20434;-77
2023/05/29 09:26:59;;;;;;;6.38;5.78;;;;;;;;;;5074717;28;20968;-76
2023/05/29 09:29:25;;;;;;;7.43;5.38;;;;;;;;;;5075148;28;20047;-77
2023/05/29 09:31:50;;;;;;;6.60;6.05;;;;;;;;;;5075838;28;20031;-76
2023/05/29 09:34:16;;;;;;;7.75;5.90;;;;;;;;;;5075468;28;20064;-75
2023/05/29 09:36:41;;;;;;;6.05;5.30;;;;;;;;;;5075874;28;20024;-77
2023/05/29 09:39:09;;;;;;;5.20;4.65;;;;;;;;;;5077163;28;20049;-76
2023/05/29 09:41:35;;;;;;;5.40;4.88;;;;;;;;;;5078015;28;20021;-76
2023/05/29 09:44:00;;;;;;;5.40;4.68;;;;;;;;;;5077010;28;20016;-76
2023/05/29 09:46:26;;;;;;;5.25;4.68;;;;;;;;;;5052348;28;20035;-76
2023/05/29 09:48:51;;;;;;;5.32;4.80;;;;;;;;;;5073718;28;20023;-75
2023/05/29 09:51:23;;;;;;;5.85;4.78;;;;;;;;;;5063956;28;20028;-75
2023/05/29 09:53:50;;;;;;;7.90;5.63;;;;;;;;;;5071807;28;20519;-77
2023/05/29 09:56:17;;;;;;;5.40;4.95;;;;;;;;;;5056987;28;20032;-76
2023/05/29 09:58:46;;;;;;;5.53;4.93;;;;;;;;;;5075422;28;20059;-77
2023/05/29 10:01:17;;;;;;;5.57;4.68;;;;;;;;;;5072888;28;20253;-77
2023/05/29 10:03:43;;;;;;;5.63;5.18;;;;;;;;;;5076787;28;20032;-76
2023/05/29 10:06:11;;;;;;;5.47;4.90;;;;;;;;;;5078512;28;20088;-75
2023/05/29 10:08:37;;;;;;;5.75;5.15;;;;;;;;;;5074154;28;20020;-74
2023/05/29 10:11:04;;;;;;;5.38;4.88;;;;;;;;;;5076206;28;20024;-75
2023/05/29 10:13:36;;;;;;;7.55;5.32;;;;;;;;;;5077718;28;20054;-77
2023/05/29 10:16:03;;;;;;;5.88;5.38;;;;;;;;;;5075454;28;20031;-78
2023/05/29 10:18:36;;;;;;;6.93;5.82;;;;;;;;;;5074879;28;20052;-77
2023/05/29 10:21:02;;;;;;;6.78;6.18;;;;;;;;;;5075279;28;20029;-76
2023/05/29 10:23:29;;;;;;;6.72;6.13;;;;;;;;;;5075491;28;20128;-77
2023/05/29 10:25:59;;;;;;;6.63;5.93;;;;;;;;;;5072154;28;20874;-76
2023/05/29 10:28:25;;;;;;;6.10;5.60;;;;;;;;;;5076020;28;20038;-76
2023/05/29 10:31:09;;;;;;;6.47;5.93;;;;;;;;;;5071969;28;20342;-77
2023/05/29 10:33:37;;;;;;;6.20;5.45;;;;;;;;;;5075866;28;20049;-76
2023/05/29 10:36:18;;;;;;;6.55;5.95;;;;;;;;;;5072787;28;20111;-77
2023/05/29 10:38:45;;;;;;;5.80;5.20;;;;;;;;;;5072051;28;20044;-75
2023/05/29 10:41:28;;;;;;;6.03;5.53;;;;;;;;;;5064655;28;20028;-75
2023/05/29 10:43:57;;;;;;;6.80;6.10;;;;;;;;;;5074955;28;20028;-77
2023/05/29 10:46:41;;;;;;;6.28;5.70;;;;;;;;;;5071556;28;20036;-77
2023/05/29 10:49:15;;;;;;;5.93;5.05;;;;;;;;;;5077092;28;20040;-75
2023/05/29 10:51:40;;;;;;;8.18;5.55;;;;;;;;;;5073135;28;20405;-76
2023/05/29 10:54:06;;;;;;;5.50;5.00;;;;;;;;;;5077038;28;20020;-76
2023/05/29 11:08:45;;;;;;;5.22;4.72;;;;;;;;;;5154694;27;20387;-77
2023/05/29 11:11:14;;;;;;;5.97;4.68;;;;;;;;;;5150872;27;20049;-78
2023/05/29 11:13:40;;;;;;;4.47;4.07;;;;;;;;;;5151260;27;20019;-78
2023/05/29 11:16:25;;;;;;;5.22;4.68;;;;;;;;;;5151629;27;20046;-77
2023/05/29 11:18:50;;;;;;;4.18;3.88;;;;;;;;;;5150357;27;20027;-80
2023/05/29 11:21:23;;;;;;;4.75;4.30;;;;;;;;;;5146585;27;20042;-81
2023/05/29 11:23:50;;;;;;;4.45;3.85;;;;;;;;;;5135640;27;20022;-77
2023/05/29 11:26:16;;;;;;;4.60;4.20;;;;;;;;;;5136008;27;20030;-77
2023/05/29 11:28:42;;;;;;;4.72;3.75;;;;;;;;;;5138585;27;20380;-82
2023/05/29 11:31:10;;;;;;;5.85;3.78;;;;;;;;;;5137164;27;20015;-79
2023/05/29 11:33:43;;;;;;;5.47;3.70;;;;;;;;;;5135274;27;20023;-79
2023/05/29 11:36:10;;;;;;;5.43;3.92;;;;;;;;;;5120081;27;20057;-78
2023/05/29 11:38:36;;;;;;;4.68;4.13;;;;;;;;;;5139540;27;20049;-82
2023/05/29 11:41:01;;;;;;;4.57;4.03;;;;;;;;;;5134341;27;20322;-80
2023/05/29 11:43:27;;;;;;;4.72;4.20;;;;;;;;;;5132742;27;20038;-81
2023/05/29 11:45:52;;;;;;;4.78;4.25;;;;;;;;;;5116216;27;20102;-79
2023/05/29 11:48:17;;;;;;;4.88;4.20;;;;;;;;;;5133218;27;20983;-79
2023/05/29 11:50:43;;;;;;;5.18;4.18;;;;;;;;;;5135906;27;20432;-83
2023/05/29 11:53:09;;;;;;;4.85;4.45;;;;;;;;;;5136356;27;20034;-79
2023/05/29 11:55:35;;;;;;;6.55;4.10;;;;;;;;;;5135656;27;20707;-80
2023/05/29 11:58:01;;;;;;;4.10;3.67;;;;;;;;;;5135382;27;20372;-79
2023/05/29 12:00:31;;;;;;;3.95;3.55;;;;;;;;;;5133674;27;20033;-85
2023/05/29 12:03:06;;;;;;;5.13;3.58;;;;;;;;;;5135594;27;20055;-77
2023/05/29 12:05:32;;;;;;;4.45;3.90;;;;;;;;;;5134329;27;20090;-82
2023/05/29 12:08:00;;;;;;;4.90;3.60;;;;;;;;;;5130115;27;20039;-77
2023/05/29 12:10:26;;;;;;;4.60;4.20;;;;;;;;;;5120132;27;20019;-83
2023/05/29 12:12:52;;;;;;;4.43;3.85;;;;;;;;;;5120484;27;20068;-77
2023/05/29 12:15:18;;;;;;;4.03;3.70;;;;;;;;;;5120439;27;20058;-82
2023/05/29 12:17:44;;;;;;;5.65;4.40;;;;;;;;;;5118837;27;20457;-77
2023/05/29 12:20:11;;;;;;;4.80;4.15;;;;;;;;;;5121930;27;20027;-79
2023/05/29 12:22:37;;;;;;;4.47;3.97;;;;;;;;;;5121224;27;20019;-79
2023/05/29 12:25:12;;;;;;;3.92;3.63;;;;;;;;;;5120735;27;20139;-79
2023/05/29 12:27:42;;;;;;;4.38;3.78;;;;;;;;;;5119500;27;20030;-78
2023/05/29 12:30:08;;;;;;;5.40;3.92;;;;;;;;;;5123954;27;20011;-78
2023/05/29 12:32:35;;;;;;;3.80;3.50;;;;;;;;;;5101171;27;20072;-83
2023/05/29 12:35:00;;;;;;;4.05;3.70;;;;;;;;;;5101420;27;20168;-80
2023/05/29 12:37:26;;;;;;;4.35;3.95;;;;;;;;;;5099565;27;20524;-79
2023/05/29 12:40:10;;;;;;;4.10;3.80;;;;;;;;;;5101643;27;20027;-80
2023/05/29 12:42:37;;;;;;;3.80;3.50;;;;;;;;;;5101421;27;20019;-78
2023/05/29 12:45:04;;;;;;;3.55;3.22;;;;;;;;;;5099160;27;20023;-80
2023/05/29 12:47:29;;;;;;;3.50;3.20;;;;;;;;;;5103554;27;20031;-79
2023/05/29 12:49:55;;;;;;;3.67;3.38;;;;;;;;;;5098701;27;20015;-77
2023/05/29 12:52:23;;;;;;;4.30;3.58;;;;;;;;;;5102220;27;20115;-79
2023/05/29 12:54:48;;;;;;;3.90;3.50;;;;;;;;;;5102951;27;20027;-78
2023/05/29 12:57:14;;;;;;;4.28;3.83;;;;;;;;;;5100679;27;20061;-79
2023/05/29 12:59:40;;;;;;;5.22;3.50;;;;;;;;;;5101373;27;20040;-80
2023/05/29 13:02:07;;;;;;;4.32;3.50;;;;;;;;;;5100906;27;20076;-78
2023/05/29 13:04:33;;;;;;;3.72;3.40;;;;;;;;;;5102357;27;20400;-79
2023/05/29 13:06:59;;;;;;;4.10;3.25;;;;;;;;;;5100864;27;21259;-77
2023/05/29 13:09:24;;;;;;;3.53;3.22;;;;;;;;;;5101283;27;20125;-78
2023/05/29 13:11:50;;;;;;;4.63;4.13;;;;;;;;;;5102674;27;20058;-78
2023/05/29 13:14:15;;;;;;;3.60;3.30;;;;;;;;;;5104437;27;20449;-80
2023/05/29 13:16:40;;;;;;;3.97;3.35;;;;;;;;;;5101722;27;20063;-82
2023/05/29 13:19:06;;;;;;;3.20;2.92;;;;;;;;;;5116432;27;20019;-78
2023/05/29 13:21:32;;;;;;;3.30;3.00;;;;;;;;;;5105440;27;20027;-80
2023/05/29 13:23:57;;;;;;;3.20;2.90;;;;;;;;;;5104637;27;20037;-81
2023/05/29 13:26:23;;;;;;;3.55;2.97;;;;;;;;;;5109836;27;20146;-83
2023/05/29 13:28:48;;;;;;;3.35;3.05;;;;;;;;;;5121635;27;20072;-84
2023/05/29 13:31:14;;;;;;;3.15;2.92;;;;;;;;;;5108349;27;20386;-79
2023/05/29 13:33:39;;;;;;;4.32;3.30;;;;;;;;;;5114960;27;20037;-79
2023/05/29 13:36:05;;;;;;;3.50;3.20;;;;;;;;;;5103287;27;20024;-80
2023/05/29 13:38:30;;;;;;;4.20;3.28;;;;;;;;;;5107311;27;20106;-82
2023/05/29 13:40:56;;;;;;;3.17;2.88;;;;;;;;;;5111635;27;20111;-86
2023/05/29 13:43:21;;;;;;;3.60;3.10;;;;;;;;;;5116437;27;20065;-82
2023/05/29 13:45:46;;;;;;;3.28;2.97;;;;;;;;;;5104379;27;20458;-77
2023/05/29 13:48:12;;;;;;;3.20;2.70;;;;;;;;;;5105607;27;20061;-83
2023/05/29 13:50:37;;;;;;;3.50;2.92;;;;;;;;;;5105802;27;20034;-82
2023/05/29 13:53:02;;;;;;;4.22;3.13;;;;;;;;;;5103803;27;20108;-83
2023/05/29 13:55:28;;;;;;;3.28;2.92;;;;;;;;;;5103477;27;20141;-82
2023/05/29 13:57:53;;;;;;;4.03;3.05;;;;;;;;;;5113989;27;20110;-77
2023/05/29 14:00:19;;;;;;;3.33;3.10;;;;;;;;;;5104934;27;20127;-78
2023/05/29 14:02:44;;;;;;;2.90;2.70;;;;;;;;;;5119905;27;20030;-79
2023/05/29 14:05:10;;;;;;;4.68;3.53;;;;;;;;;;5087539;27;20035;-77
2023/05/29 14:07:36;;;;;;;3.47;3.17;;;;;;;;;;5103877;27;20437;-80
2023/05/29 14:10:02;;;;;;;3.75;3.20;;;;;;;;;;5102352;27;20038;-79
2023/05/29 14:12:27;;;;;;;3.47;2.67;;;;;;;;;;5114883;27;20146;-79
2023/05/29 14:14:52;;;;;;;3.17;2.88;;;;;;;;;;5105827;27;20031;-78
2023/05/29 14:17:18;;;;;;;4.28;3.03;;;;;;;;;;5113311;27;20699;-78
2023/05/29 14:19:45;;;;;;;4.47;2.65;;;;;;;;;;5119948;27;20023;-77
2023/05/29 14:22:11;;;;;;;5.35;3.10;;;;;;;;;;5117366;27;20027;-82
2023/05/29 14:24:36;;;;;;;3.67;2.60;;;;;;;;;;5106558;27;20030;-79
2023/05/29 14:27:02;;;;;;;3.60;3.17;;;;;;;;;;5114331;27;20193;-79
2023/05/29 14:29:27;;;;;;;4.90;3.30;;;;;;;;;;5117918;27;20027;-80
2023/05/29 14:31:53;;;;;;;4.80;3.30;;;;;;;;;;5118505;27;20437;-79
2023/05/29 14:34:18;;;;;;;3.63;3.22;;;;;;;;;;5118185;27;20161;-78
2023/05/29 14:36:46;;;;;;;3.58;3.25;;;;;;;;;;5120066;27;20027;-78
2023/05/29 14:39:12;;;;;;;4.70;3.23;;;;;;;;;;5100597;27;20027;-78
2023/05/29 14:41:37;;;;;;;3.58;3.28;;;;;;;;;;5112316;27;20030;-79